createdAt,value
2017-12-09T04:29:31.381Z,1.20
2017-12-09T04:32:34.049Z,1.30
2017-12-09T04:35:35.973Z,1.20
2017-12-09T04:38:37.870Z,1.30
2017-12-09T04:41:39.810Z,1.30
2017-12-09T04:44:41.777Z,1.30
2017-12-09T04:47:43.690Z,1.30
2017-12-09T04:50:46.374Z,1.30
2017-12-09T04:53:49.139Z,1.40
2017-12-09T04:56:51.053Z,1.40
2017-12-09T04:59:53.509Z,1.40
2017-12-09T05:02:55.441Z,1.40
2017-12-09T05:05:58.173Z,1.40
2017-12-09T05:09:00.088Z,1.40
2017-12-09T05:12:02.045Z,1.30
2017-12-09T05:15:03.942Z,1.20
2017-12-09T05:18:05.866Z,1.10
2017-12-09T05:21:08.645Z,1.00
2017-12-09T05:24:11.219Z,1.00
2017-12-09T05:27:13.135Z,1.00
2017-12-09T05:30:16.590Z,0.90
2017-12-09T05:33:18.509Z,0.90
2017-12-09T05:36:20.458Z,0.90
2017-12-09T05:39:22.543Z,0.90
2017-12-09T05:42:24.658Z,0.90
2017-12-09T05:45:26.625Z,0.80
2017-12-09T05:48:28.666Z,0.90
2017-12-09T05:51:31.510Z,0.80
2017-12-09T05:54:33.804Z,0.80
2017-12-09T05:57:35.829Z,0.80
2017-12-09T06:00:37.787Z,0.80
2017-12-09T06:03:39.702Z,0.80
2017-12-09T06:06:41.646Z,0.80
2017-12-09T06:09:43.566Z,0.90
2017-12-09T06:12:45.525Z,0.90
2017-12-09T06:15:47.425Z,0.90
2017-12-09T06:18:49.475Z,0.90
2017-12-09T06:21:51.368Z,0.90
2017-12-09T06:24:53.334Z,1.00
2017-12-09T06:27:55.275Z,1.00
2017-12-09T06:30:57.985Z,1.00
2017-12-09T06:33:59.892Z,1.00
2017-12-09T06:37:01.814Z,1.00
2017-12-09T06:40:03.754Z,1.00
2017-12-09T06:43:05.669Z,1.00
2017-12-09T06:46:07.566Z,1.00
2017-12-09T06:49:09.506Z,1.00
2017-12-09T06:52:12.288Z,1.00
2017-12-09T06:55:14.234Z,1.00
2017-12-09T06:58:16.206Z,1.00
2017-12-09T07:01:18.106Z,1.00
2017-12-09T07:04:20.961Z,1.00
2017-12-09T07:07:22.959Z,1.00
2017-12-09T07:10:24.846Z,1.10
2017-12-09T07:13:26.769Z,1.00
2017-12-09T07:16:28.688Z,1.00
2017-12-09T07:19:30.633Z,1.10
2017-12-09T07:22:32.526Z,1.00
2017-12-09T07:25:34.445Z,1.10
2017-12-09T07:28:36.365Z,1.10
2017-12-09T07:31:39.045Z,1.10
2017-12-09T07:34:41.143Z,1.10
2017-12-09T07:37:43.058Z,1.00
2017-12-09T07:40:44.973Z,1.10
2017-12-09T07:43:46.894Z,1.10
2017-12-09T07:46:49.556Z,1.10
2017-12-09T07:49:51.493Z,1.10
2017-12-09T07:52:53.411Z,1.10
2017-12-09T07:55:55.541Z,1.10
2017-12-09T07:58:58.201Z,1.20
2017-12-09T08:02:00.142Z,1.20
2017-12-09T08:05:02.057Z,1.20
2017-12-09T08:08:03.986Z,1.20
2017-12-09T08:11:06.654Z,1.30
2017-12-09T08:14:08.593Z,1.30
2017-12-09T08:17:10.504Z,1.40
2017-12-09T08:20:12.485Z,1.40
2017-12-09T08:23:14.376Z,1.40
2017-12-09T08:26:16.301Z,1.50
2017-12-09T08:29:18.953Z,1.50
2017-12-09T08:32:20.890Z,1.50
2017-12-09T08:35:22.810Z,1.60
2017-12-09T08:38:24.759Z,1.60
2017-12-09T08:41:26.659Z,1.70
2017-12-09T08:44:28.788Z,1.90
2017-12-09T08:47:30.785Z,2.10
2017-12-09T08:50:32.728Z,2.40
2017-12-09T08:53:34.666Z,2.50
2017-12-09T08:56:38.300Z,2.50
2017-12-09T08:59:40.221Z,2.50
2017-12-09T09:02:42.167Z,2.40
2017-12-09T09:05:44.061Z,2.30
2017-12-09T09:08:46.017Z,2.20
2017-12-09T09:11:47.909Z,2.20
2017-12-09T09:14:49.837Z,2.40
2017-12-09T09:17:52.533Z,2.60
2017-12-09T09:20:54.494Z,2.60
2017-12-09T09:23:56.390Z,2.70
2017-12-09T09:26:58.320Z,2.60
2017-12-09T09:30:00.978Z,2.50
2017-12-09T09:33:03.000Z,2.50
2017-12-09T09:36:05.689Z,2.60
2017-12-09T09:39:07.631Z,2.50
2017-12-09T09:42:09.555Z,2.70
2017-12-09T09:45:12.239Z,3.10
2017-12-09T09:48:14.136Z,3.10
2017-12-09T09:51:16.865Z,3.40
2017-12-09T09:54:18.793Z,3.40
2017-12-09T09:57:20.746Z,3.70
2017-12-09T10:00:22.662Z,3.80
2017-12-09T10:03:25.611Z,4.30
2017-12-09T10:06:27.522Z,4.50
2017-12-09T10:09:29.470Z,4.40
2017-12-09T10:12:31.389Z,4.10
2017-12-09T10:15:33.312Z,3.90
2017-12-09T10:18:36.294Z,3.60
2017-12-09T10:21:38.241Z,3.60
2017-12-09T10:24:40.166Z,3.80
2017-12-09T10:27:42.089Z,5.40
2017-12-09T10:30:44.876Z,7.40
2017-12-09T10:33:47.596Z,10.70
2017-12-09T10:36:49.524Z,10.60
2017-12-09T10:39:51.449Z,11.00
2017-12-09T10:42:53.343Z,11.70
2017-12-09T10:45:55.301Z,12.20
2017-12-09T10:48:57.993Z,13.70
2017-12-09T10:52:00.703Z,14.00
2017-12-09T10:55:03.402Z,14.20
2017-12-09T10:58:06.106Z,13.60
2017-12-09T11:01:08.863Z,12.40
2017-12-09T11:04:10.781Z,12.30
2017-12-09T11:07:13.478Z,10.80
2017-12-09T11:10:16.169Z,10.70
2017-12-09T11:13:18.861Z,10.70
2017-12-09T11:16:20.787Z,10.70
2017-12-09T11:19:22.714Z,10.70
2017-12-09T11:22:24.636Z,11.00
2017-12-09T11:25:27.428Z,11.10
2017-12-09T11:28:30.138Z,11.50
2017-12-09T11:31:32.067Z,11.50
2017-12-09T11:34:34.029Z,11.70
2017-12-09T11:37:36.275Z,11.10
2017-12-09T11:40:38.222Z,10.00
2017-12-09T11:43:40.130Z,8.80
2017-12-09T11:46:42.210Z,7.80
2017-12-09T11:49:44.126Z,7.10
2017-12-09T11:52:46.065Z,6.80
2017-12-09T11:55:47.985Z,6.70
2017-12-09T11:58:49.997Z,6.60
2017-12-09T12:01:51.899Z,7.10
2017-12-09T12:04:54.418Z,8.70
2017-12-09T12:07:56.331Z,10.50
2017-12-09T12:10:59.214Z,12.30
2017-12-09T12:14:02.083Z,11.30
2017-12-09T12:17:04.022Z,11.20
2017-12-09T12:20:05.940Z,9.80
2017-12-09T12:23:07.886Z,8.80
2017-12-09T12:26:09.801Z,7.80
2017-12-09T12:29:11.757Z,7.00
2017-12-09T12:32:13.712Z,6.50
2017-12-09T12:35:16.466Z,6.20
2017-12-09T12:38:18.416Z,6.20
2017-12-09T12:41:20.342Z,7.60
2017-12-09T12:44:22.253Z,8.10
2017-12-09T12:47:24.952Z,6.50
2017-12-09T12:50:26.877Z,6.50
2017-12-09T12:53:29.490Z,5.70
2017-12-09T12:56:31.481Z,5.10
2017-12-09T12:59:33.445Z,4.80
2017-12-09T13:02:35.375Z,4.50
2017-12-09T13:05:38.018Z,4.40
2017-12-09T13:08:39.943Z,4.30
2017-12-09T13:11:41.877Z,4.20
2017-12-09T13:14:43.770Z,4.00
2017-12-09T13:17:45.711Z,3.90
2017-12-09T13:20:48.390Z,3.70
2017-12-09T13:23:50.340Z,3.70
2017-12-09T13:26:52.232Z,3.70
2017-12-09T13:29:54.171Z,3.70
2017-12-09T13:32:56.065Z,3.80
2017-12-09T13:35:57.987Z,3.80
2017-12-09T13:38:59.875Z,4.00
2017-12-09T13:42:01.825Z,4.70
2017-12-09T13:45:03.745Z,5.30
2017-12-09T13:48:05.674Z,5.60
2017-12-09T13:51:07.566Z,5.50
2017-12-09T13:54:09.533Z,5.20
2017-12-09T13:57:11.433Z,5.00
2017-12-09T14:00:13.358Z,4.80
2017-12-09T14:03:15.267Z,4.60
2017-12-09T14:06:17.259Z,4.30
2017-12-09T14:09:19.183Z,4.10
2017-12-09T14:12:21.183Z,4.00
2017-12-09T14:15:23.161Z,3.80
2017-12-09T14:18:25.093Z,3.60
2017-12-09T14:21:27.009Z,3.50
2017-12-09T14:24:29.094Z,3.40
2017-12-09T14:27:31.092Z,3.30
2017-12-09T14:30:33.094Z,3.20
2017-12-09T14:33:35.943Z,3.00
2017-12-09T14:36:37.902Z,3.00
2017-12-09T14:39:39.974Z,2.90
2017-12-09T14:42:42.682Z,2.80
2017-12-09T14:45:45.062Z,2.70
2017-12-09T14:48:47.766Z,2.60
2017-12-09T14:51:50.461Z,2.60
2017-12-09T14:54:53.257Z,2.50
2017-12-09T14:57:55.210Z,2.50
2017-12-09T15:00:57.256Z,2.50
2017-12-09T15:03:59.181Z,2.50
2017-12-09T15:07:01.188Z,2.50
2017-12-09T15:10:03.103Z,2.50
2017-12-09T15:13:05.132Z,2.50
2017-12-09T15:16:07.092Z,2.50
2017-12-09T15:19:09.036Z,2.50
2017-12-09T15:22:11.789Z,2.40
2017-12-09T15:25:13.760Z,2.40
2017-12-09T15:28:15.861Z,2.40
2017-12-09T15:31:17.832Z,2.40
2017-12-09T15:34:19.773Z,2.30
2017-12-09T15:37:22.479Z,2.30
2017-12-09T15:40:24.422Z,2.30
2017-12-09T15:43:26.354Z,2.30
2017-12-09T15:46:28.279Z,2.30
2017-12-09T15:49:30.235Z,2.40
2017-12-09T15:52:32.122Z,2.40
2017-12-09T15:55:34.106Z,2.40
2017-12-09T15:58:36.031Z,2.40
2017-12-09T16:01:38.730Z,2.40
2017-12-09T16:04:40.646Z,2.40
2017-12-09T16:07:42.588Z,2.50
2017-12-09T16:10:44.711Z,2.60
2017-12-09T16:13:46.637Z,2.60
2017-12-09T16:16:48.576Z,2.70
2017-12-09T16:19:50.594Z,2.70
2017-12-09T16:22:52.541Z,2.80
2017-12-09T16:25:54.465Z,2.80
2017-12-09T16:28:56.391Z,2.90
2017-12-09T16:31:58.387Z,2.90
2017-12-09T16:35:00.504Z,2.90
2017-12-09T16:38:02.791Z,2.90
2017-12-09T16:41:04.698Z,3.10
2017-12-09T16:44:07.127Z,3.20
2017-12-09T16:47:09.400Z,3.20
2017-12-09T16:50:12.282Z,3.10
2017-12-09T16:53:14.262Z,3.10
2017-12-09T16:56:16.235Z,3.10
2017-12-09T16:59:18.196Z,3.10
2017-12-09T17:02:20.161Z,3.00
2017-12-09T17:05:22.102Z,3.00
2017-12-09T17:08:25.584Z,2.90
2017-12-09T17:11:27.717Z,2.90
2017-12-09T17:14:30.447Z,2.80
2017-12-09T17:17:32.356Z,2.70
2017-12-09T17:20:34.281Z,2.50
2017-12-09T17:23:36.274Z,2.50
2017-12-09T17:26:39.032Z,2.40
2017-12-09T17:29:40.964Z,2.40
2017-12-09T17:32:43.829Z,2.50
2017-12-09T17:35:45.750Z,2.50
2017-12-09T17:38:47.726Z,2.50
2017-12-09T17:41:50.385Z,2.50
2017-12-09T17:44:52.322Z,2.50
2017-12-09T17:47:54.222Z,2.60
2017-12-09T17:50:56.150Z,2.80
2017-12-09T17:53:58.053Z,3.10
2017-12-09T17:57:00.765Z,3.00
2017-12-09T18:00:02.693Z,3.00
2017-12-09T18:03:04.652Z,2.90
2017-12-09T18:06:06.590Z,2.80
2017-12-09T18:09:09.321Z,2.70
2017-12-09T18:12:11.223Z,2.70
2017-12-09T18:15:13.151Z,2.70
2017-12-09T18:18:15.849Z,2.60
2017-12-09T18:21:18.562Z,2.60
2017-12-09T18:24:21.457Z,2.60
2017-12-09T18:27:24.341Z,2.60
2017-12-09T18:30:26.259Z,2.60
2017-12-09T18:33:28.974Z,2.60
2017-12-09T18:36:30.931Z,2.60
2017-12-09T18:39:33.667Z,2.50
2017-12-09T18:42:35.598Z,2.50
2017-12-09T18:45:37.694Z,2.50
2017-12-09T18:48:39.616Z,2.40
2017-12-09T18:51:41.565Z,2.40
2017-12-09T18:54:44.297Z,2.40
2017-12-09T18:57:46.229Z,2.40
2017-12-09T19:00:49.730Z,2.40
2017-12-09T19:03:51.682Z,2.40
2017-12-09T19:06:53.577Z,2.40
2017-12-09T19:09:55.530Z,2.40
2017-12-09T19:12:58.304Z,2.40
2017-12-09T19:16:02.077Z,2.20
2017-12-09T19:19:04.029Z,2.20
2017-12-09T19:22:06.731Z,2.10
2017-12-09T19:25:09.441Z,2.10
2017-12-09T19:28:11.418Z,2.10
2017-12-09T19:31:13.354Z,2.00
2017-12-09T19:34:15.286Z,2.10
2017-12-09T19:37:17.210Z,2.00
2017-12-09T19:40:19.155Z,2.10
2017-12-09T19:43:21.085Z,2.10
2017-12-09T19:46:23.648Z,2.10
2017-12-09T19:49:25.583Z,2.10
2017-12-09T19:52:27.584Z,2.10
2017-12-09T19:55:29.535Z,2.10
2017-12-09T19:58:31.483Z,2.50
2017-12-09T20:01:33.379Z,2.60
2017-12-09T20:04:35.391Z,2.60
2017-12-09T20:07:37.314Z,2.40
2017-12-09T20:10:39.236Z,2.40
2017-12-09T20:13:41.157Z,2.30
2017-12-09T20:16:43.919Z,2.30
2017-12-09T20:19:45.850Z,2.30
2017-12-09T20:22:48.019Z,2.20
2017-12-09T20:25:50.690Z,2.20
2017-12-09T20:28:52.638Z,2.10
2017-12-09T20:31:54.580Z,2.10
2017-12-09T20:34:56.546Z,2.00
2017-12-09T20:37:59.306Z,2.00
2017-12-09T20:41:01.247Z,2.00
2017-12-09T20:44:03.741Z,2.00
2017-12-09T20:47:08.564Z,2.00
2017-12-09T20:50:10.858Z,2.00
2017-12-09T20:53:12.791Z,2.00
2017-12-09T20:56:14.776Z,2.00
2017-12-09T20:59:16.825Z,2.00
2017-12-09T21:02:18.737Z,2.10
2017-12-09T21:05:20.669Z,2.10
2017-12-09T21:08:22.588Z,2.10
2017-12-09T21:11:26.210Z,2.10
2017-12-09T21:14:29.622Z,2.10
2017-12-09T21:17:32.331Z,2.10
2017-12-09T21:20:35.025Z,2.10
2017-12-09T21:23:37.781Z,2.10
2017-12-09T21:26:39.739Z,2.10
2017-12-09T21:29:41.678Z,2.10
2017-12-09T21:32:43.620Z,2.10
2017-12-09T21:35:45.555Z,2.10
2017-12-09T21:38:48.229Z,2.10
2017-12-09T21:41:50.211Z,2.10
2017-12-09T21:44:52.113Z,2.10
2017-12-09T21:47:54.881Z,2.10
2017-12-09T21:50:56.798Z,2.10
2017-12-09T21:53:59.506Z,2.10
2017-12-09T21:57:02.190Z,2.10
2017-12-09T22:00:04.165Z,2.10
2017-12-09T22:03:06.224Z,2.10
2017-12-09T22:06:08.402Z,2.10
2017-12-09T22:09:10.369Z,2.00
2017-12-09T22:12:12.541Z,2.00
2017-12-09T22:15:14.462Z,1.90
2017-12-09T22:18:16.446Z,1.90
2017-12-09T22:21:18.362Z,1.80
2017-12-09T22:24:20.357Z,1.80
2017-12-09T22:27:23.059Z,1.80
2017-12-09T22:30:25.773Z,1.90
2017-12-09T22:33:27.675Z,1.90
2017-12-09T22:36:29.611Z,1.90
2017-12-09T22:39:31.553Z,2.00
2017-12-09T22:42:33.477Z,2.00
2017-12-09T22:45:35.446Z,2.00
2017-12-09T22:48:37.418Z,2.00
2017-12-09T22:51:39.368Z,2.00
2017-12-09T22:54:41.325Z,2.00
2017-12-09T22:57:43.229Z,2.10
2017-12-09T23:00:45.632Z,2.00
2017-12-09T23:03:47.560Z,2.00
2017-12-09T23:06:50.299Z,2.00
2017-12-09T23:09:52.198Z,2.00
2017-12-09T23:12:54.121Z,2.00
2017-12-09T23:15:56.048Z,2.00
2017-12-09T23:18:58.012Z,2.00
2017-12-09T23:21:59.938Z,2.00
2017-12-09T23:25:01.998Z,2.00
2017-12-09T23:28:03.941Z,2.00
2017-12-09T23:31:06.644Z,2.00
2017-12-09T23:34:08.614Z,2.00
2017-12-09T23:37:10.565Z,1.90
2017-12-09T23:40:12.505Z,1.90
2017-12-09T23:43:14.449Z,1.90
2017-12-09T23:46:16.371Z,1.90
2017-12-09T23:49:18.414Z,1.90
2017-12-09T23:52:20.322Z,1.80
2017-12-09T23:55:23.005Z,1.80
2017-12-09T23:58:24.942Z,1.80
